createdAt,value
2022-08-05T00:01:28.512Z,99840.41
2022-08-05T00:03:57.630Z,99846.00
2022-08-05T00:06:32.161Z,99836.62
2022-08-05T00:09:00.685Z,99839.28
2022-08-05T00:11:34.808Z,99837.72
2022-08-05T00:16:57.633Z,99838.41
2022-08-05T00:19:33.337Z,99834.37
2022-08-05T00:22:01.503Z,99835.97
2022-08-05T00:24:30.888Z,99833.81
2022-08-05T00:26:58.715Z,99837.97
2022-08-05T00:29:37.827Z,99832.69
2022-08-05T00:32:12.219Z,99834.66
2022-08-05T00:35:04.446Z,99832.03
2022-08-05T00:37:35.668Z,99827.38
2022-08-05T00:40:17.941Z,99835.22
2022-08-05T00:42:55.181Z,99823.06
2022-08-05T00:45:28.239Z,99837.91
2022-08-05T00:48:10.104Z,99837.97
2022-08-05T00:50:37.981Z,99831.97
2022-08-05T00:53:09.903Z,99830.81
2022-08-05T00:55:51.752Z,99826.81
2022-08-05T00:58:19.114Z,99824.91
2022-08-05T01:00:46.608Z,99825.28
2022-08-05T01:03:22.680Z,99825.81
2022-08-05T01:05:54.553Z,99817.06
2022-08-05T01:08:39.142Z,99821.19
2022-08-05T01:11:38.974Z,99812.44
2022-08-05T01:14:08.892Z,99823.09
2022-08-05T01:16:35.864Z,99821.91
2022-08-05T01:19:46.372Z,99821.19
2022-08-05T01:22:10.901Z,99815.38
2022-08-05T01:24:54.472Z,99816.66
2022-08-05T01:27:22.250Z,99822.41
2022-08-05T01:29:50.058Z,99826.22
2022-08-05T01:32:20.920Z,99823.44
2022-08-05T01:34:52.463Z,99822.97
2022-08-05T01:37:37.484Z,99823.81
2022-08-05T01:40:12.666Z,99823.19
2022-08-05T01:42:40.749Z,99824.09
2022-08-05T01:45:08.337Z,99824.38
2022-08-05T01:47:39.406Z,99832.03
2022-08-05T01:50:15.182Z,99836.84
2022-08-05T01:52:43.333Z,99834.81
2022-08-05T01:55:11.258Z,99832.91
2022-08-05T01:58:11.775Z,99834.47
2022-08-05T02:00:30.248Z,99834.97
2022-08-05T02:02:58.458Z,99830.47
2022-08-05T02:05:29.758Z,99826.50
2022-08-05T02:08:01.058Z,99828.19
2022-08-05T02:10:31.194Z,99824.91
2022-08-05T02:13:01.839Z,99820.13
2022-08-05T02:15:35.417Z,99820.25
2022-08-05T02:18:30.855Z,99817.03
2022-08-05T02:21:05.666Z,99822.62
2022-08-05T02:23:33.536Z,99825.13
2022-08-05T02:26:01.004Z,99825.13
2022-08-05T02:28:32.972Z,99820.53
2022-08-05T02:31:04.556Z,99823.88
2022-08-05T02:33:38.247Z,99819.31
2022-08-05T02:36:06.511Z,99823.00
2022-08-05T02:38:36.253Z,99827.50
2022-08-05T02:41:06.565Z,99820.41
2022-08-05T02:44:06.066Z,99815.00
2022-08-05T02:46:31.827Z,99815.12
2022-08-05T02:48:58.832Z,99818.09
2022-08-05T02:51:48.446Z,99816.94
2022-08-05T02:54:35.702Z,99818.81
2022-08-05T02:57:00.262Z,99827.03
2022-08-05T02:59:27.999Z,99819.66
2022-08-05T03:01:58.398Z,99814.50
2022-08-05T03:04:25.532Z,99816.97
2022-08-05T03:06:59.401Z,99817.47
2022-08-05T03:09:36.436Z,99812.09
2022-08-05T03:12:05.825Z,99813.25
2022-08-05T03:14:32.569Z,99807.38
2022-08-05T03:17:00.651Z,99801.81
2022-08-05T03:19:34.439Z,99803.16
2022-08-05T03:22:04.979Z,99804.63
2022-08-05T03:24:47.296Z,99797.28
2022-08-05T03:27:18.248Z,99793.94
2022-08-05T03:30:07.447Z,99796.59
2022-08-05T03:32:31.992Z,99798.19
2022-08-05T03:35:00.720Z,99799.56
2022-08-05T03:37:27.597Z,99800.38
2022-08-05T03:39:58.948Z,99794.53
2022-08-05T03:42:29.134Z,99791.72
2022-08-05T03:44:58.648Z,99795.63
2022-08-05T03:47:25.647Z,99790.94
2022-08-05T03:49:57.747Z,99798.06
2022-08-05T03:52:37.936Z,99792.66
2022-08-05T03:56:04.809Z,99794.25
2022-08-05T03:57:59.159Z,99800.28
2022-08-05T04:00:31.476Z,99800.97
2022-08-05T04:02:59.316Z,99798.91
2022-08-05T04:05:28.087Z,99801.97
2022-08-05T04:08:05.851Z,99808.63
2022-08-05T04:10:42.062Z,99801.97
2022-08-05T04:13:09.065Z,99805.22
2022-08-05T04:15:36.401Z,99802.91
2022-08-05T04:18:07.234Z,99794.41
2022-08-05T04:20:36.609Z,99801.19
2022-08-05T04:23:03.671Z,99796.03
2022-08-05T04:25:57.519Z,99796.34
2022-08-05T04:28:17.810Z,99801.31
2022-08-05T04:30:45.170Z,99793.94
2022-08-05T04:33:12.466Z,99793.34
2022-08-05T04:36:16.226Z,99793.81
2022-08-05T04:38:39.516Z,99801.72
2022-08-05T04:41:09.311Z,99794.69
2022-08-05T04:43:37.193Z,99793.09
2022-08-05T04:46:05.170Z,99801.22
2022-08-05T04:48:32.377Z,99794.19
2022-08-05T04:51:02.059Z,99793.94
2022-08-05T04:53:33.365Z,99795.00
2022-08-05T04:56:32.931Z,99806.25
2022-08-05T04:58:50.020Z,99791.53
2022-08-05T05:02:08.159Z,99795.50
2022-08-05T05:04:04.692Z,99790.59
2022-08-05T05:06:38.725Z,99791.53
2022-08-05T05:09:07.555Z,99797.38
2022-08-05T05:11:52.909Z,99789.69
2022-08-05T05:14:27.973Z,99794.72
2022-08-05T05:16:59.971Z,99796.03
2022-08-05T05:19:36.167Z,99786.88
2022-08-05T05:22:24.411Z,99792.88
2022-08-05T05:24:58.006Z,99793.03
2022-08-05T05:27:44.750Z,99789.66
2022-08-05T05:30:29.783Z,99787.75
2022-08-05T05:33:00.407Z,99791.50
2022-08-05T05:35:29.158Z,99792.25
2022-08-05T05:38:03.086Z,99786.25
2022-08-05T05:40:32.629Z,99784.41
2022-08-05T05:43:02.074Z,99785.97
2022-08-05T05:45:29.153Z,99782.75
2022-08-05T05:48:06.811Z,99781.53
2022-08-05T05:50:41.268Z,99780.41
2022-08-05T05:53:21.117Z,99783.03
2022-08-05T05:55:52.450Z,99774.06
2022-08-05T05:58:32.056Z,99772.72
2022-08-05T06:01:12.356Z,99776.09
2022-08-05T06:04:00.732Z,99780.78
2022-08-05T06:06:27.957Z,99783.53
2022-08-05T06:08:58.689Z,99780.03
2022-08-05T06:11:26.117Z,99774.97
2022-08-05T06:13:55.595Z,99776.09
2022-08-05T06:16:28.978Z,99780.59
2022-08-05T06:19:00.965Z,99785.09
2022-08-05T06:21:36.026Z,99785.34
2022-08-05T06:24:06.049Z,99781.34
2022-08-05T06:26:35.160Z,99779.59
2022-08-05T06:29:03.519Z,99780.94
2022-08-05T06:31:33.582Z,99781.28
2022-08-05T06:34:07.591Z,99779.91
2022-08-05T06:36:55.298Z,99779.41
2022-08-05T06:39:24.675Z,99783.06
2022-08-05T06:41:55.486Z,99781.69
2022-08-05T06:44:24.382Z,99782.16
2022-08-05T06:46:52.770Z,99771.63
2022-08-05T06:49:50.551Z,99778.34
2022-08-05T06:52:36.794Z,99780.78
2022-08-05T06:54:57.215Z,99780.63
2022-08-05T06:57:57.378Z,99771.66
2022-08-05T07:00:11.125Z,99785.19
2022-08-05T07:02:46.101Z,99771.69
2022-08-05T07:05:14.411Z,99776.53
2022-08-05T07:07:48.980Z,99776.62
2022-08-05T07:10:16.379Z,99784.03
2022-08-05T07:13:01.918Z,99778.31
2022-08-05T07:16:00.998Z,99790.00
2022-08-05T07:18:32.583Z,99786.09
2022-08-05T07:21:04.810Z,99785.16
2022-08-05T07:23:32.604Z,99786.16
2022-08-05T07:25:59.489Z,99773.72
2022-08-05T07:28:26.755Z,99782.50
2022-08-05T07:30:55.129Z,99785.69
2022-08-05T07:33:36.890Z,99780.19
2022-08-05T07:36:20.862Z,99782.75
2022-08-05T07:38:48.996Z,99780.94
2022-08-05T07:42:14.569Z,99773.69
2022-08-05T07:44:05.282Z,99777.63
2022-08-05T07:46:37.709Z,99768.81
2022-08-05T07:49:06.223Z,99769.88
2022-08-05T07:51:48.795Z,99771.13
2022-08-05T07:54:30.924Z,99764.44
2022-08-05T07:57:18.171Z,99770.78
2022-08-05T07:59:48.978Z,99768.88
2022-08-05T08:02:17.903Z,99764.31
2022-08-05T08:04:46.446Z,99771.97
2022-08-05T08:07:13.709Z,99772.22
2022-08-05T08:09:40.458Z,99773.41
2022-08-05T08:12:33.323Z,99770.00
2022-08-05T08:14:54.335Z,99770.31
2022-08-05T08:17:21.695Z,99770.28
2022-08-05T08:20:43.759Z,99769.09
2022-08-05T08:22:39.708Z,99772.37
2022-08-05T08:25:16.514Z,99771.78
2022-08-05T08:27:51.333Z,99765.53
2022-08-05T08:30:29.727Z,99765.53
2022-08-05T08:33:13.896Z,99758.72
2022-08-05T08:35:52.982Z,99761.00
2022-08-05T08:38:32.154Z,99759.31
2022-08-05T08:41:08.557Z,99756.44
2022-08-05T08:45:20.171Z,99761.88
2022-08-05T08:46:28.018Z,99755.63
2022-08-05T08:49:06.214Z,99764.13
2022-08-05T08:52:06.052Z,99767.47
2022-08-05T08:54:30.547Z,99762.41
2022-08-05T08:56:59.199Z,99766.34
2022-08-05T08:59:27.391Z,99770.97
2022-08-05T09:01:57.438Z,99759.69
2022-08-05T09:04:30.366Z,99752.25
2022-08-05T09:06:58.345Z,99755.50
2022-08-05T09:09:25.967Z,99758.94
2022-08-05T09:12:03.328Z,99748.97
2022-08-05T09:14:59.202Z,99751.75
2022-08-05T09:17:41.106Z,99749.22
2022-08-05T09:20:08.897Z,99740.75
2022-08-05T09:22:54.915Z,99746.00
2022-08-05T09:26:03.017Z,99743.22
2022-08-05T09:28:23.396Z,99739.69
2022-08-05T09:30:57.239Z,99730.97
2022-08-05T09:33:25.402Z,99727.50
2022-08-05T09:36:11.542Z,99726.16
2022-08-05T09:38:39.060Z,99722.62
2022-08-05T09:41:07.388Z,99723.19
2022-08-05T09:43:41.473Z,99719.37
2022-08-05T09:46:28.083Z,99713.28
2022-08-05T09:49:06.786Z,99709.78
2022-08-05T09:51:38.162Z,99712.31
2022-08-05T09:54:10.040Z,99717.06
2022-08-05T09:56:38.051Z,99717.22
2022-08-05T09:59:05.104Z,99704.19
2022-08-05T10:01:33.767Z,99698.81
2022-08-05T10:04:10.572Z,99696.34
2022-08-05T10:06:40.760Z,99693.84
2022-08-05T10:09:27.581Z,99695.63
2022-08-05T10:11:55.220Z,99697.00
2022-08-05T10:14:24.148Z,99690.94
2022-08-05T10:16:56.300Z,99691.62
2022-08-05T10:20:02.991Z,99677.78
2022-08-05T10:22:15.781Z,99680.06
2022-08-05T10:24:57.286Z,99681.13
2022-08-05T10:27:26.049Z,99675.00
2022-08-05T10:31:21.013Z,99674.47
2022-08-05T10:33:02.069Z,99671.56
2022-08-05T10:35:40.691Z,99669.31
2022-08-05T10:38:11.758Z,99666.50
2022-08-05T10:40:43.592Z,99658.25
2022-08-05T10:43:35.885Z,99660.56
2022-08-05T10:46:06.609Z,99659.72
2022-08-05T10:48:39.572Z,99656.41
2022-08-05T10:51:29.341Z,99651.59
2022-08-05T10:54:01.885Z,99650.72
2022-08-05T10:56:52.689Z,99652.88
2022-08-05T11:00:02.639Z,99642.94
2022-08-05T11:02:34.732Z,99646.28
2022-08-05T11:05:03.553Z,99648.63
2022-08-05T11:07:32.835Z,99640.78
2022-08-05T11:10:21.877Z,99638.25
2022-08-05T11:12:50.738Z,99637.41
2022-08-05T11:15:23.522Z,99640.94
2022-08-05T11:18:29.949Z,99631.06
2022-08-05T11:20:59.517Z,99637.34
2022-08-05T11:24:02.907Z,99631.12
2022-08-05T11:26:28.815Z,99633.53
2022-08-05T11:29:12.290Z,99628.81
2022-08-05T11:31:57.148Z,99628.50
2022-08-05T11:34:52.125Z,99625.72
2022-08-05T11:38:30.742Z,99620.72
2022-08-05T11:40:50.170Z,99628.16
2022-08-05T11:44:01.096Z,99622.25
2022-08-05T11:46:27.153Z,99628.63
2022-08-05T11:48:56.985Z,99619.22
2022-08-05T11:51:44.684Z,99629.72
2022-08-05T11:54:33.259Z,99624.38
2022-08-05T11:57:02.192Z,99626.06
2022-08-05T11:59:41.435Z,99622.16
2022-08-05T12:02:29.919Z,99622.75
2022-08-05T12:05:00.618Z,99628.19
2022-08-05T12:08:09.296Z,99628.53
2022-08-05T12:10:20.201Z,99624.41
2022-08-05T12:12:59.520Z,99623.81
2022-08-05T12:15:38.749Z,99620.41
2022-08-05T12:18:10.015Z,99613.25
2022-08-05T12:20:40.732Z,99604.00
2022-08-05T12:23:09.533Z,99602.78
2022-08-05T12:25:49.313Z,99612.91
2022-08-05T12:28:31.759Z,99609.16
2022-08-05T12:31:02.253Z,99601.38
2022-08-05T12:33:36.621Z,99603.41
2022-08-05T12:36:09.323Z,99594.63
2022-08-05T12:38:38.172Z,99597.16
2022-08-05T12:41:12.435Z,99597.59
2022-08-05T12:43:58.239Z,99600.03
2022-08-05T12:46:28.990Z,99603.00
2022-08-05T12:48:59.158Z,99591.81
2022-08-05T12:52:13.552Z,99592.00
2022-08-05T12:54:26.494Z,99596.91
2022-08-05T12:56:57.723Z,99593.16
2022-08-05T12:59:46.964Z,99588.75
2022-08-05T13:02:12.930Z,99584.22
2022-08-05T13:04:52.459Z,99585.12
2022-08-05T13:07:55.001Z,99584.16
2022-08-05T13:10:11.214Z,99573.72
2022-08-05T13:12:51.085Z,99574.75
2022-08-05T13:15:41.259Z,99568.91
2022-08-05T13:18:19.411Z,99567.97
2022-08-05T13:20:50.332Z,99563.56
2022-08-05T13:23:22.051Z,99552.81
2022-08-05T13:25:59.513Z,99551.13
2022-08-05T13:28:28.822Z,99552.97
2022-08-05T13:30:57.141Z,99546.47
2022-08-05T13:34:21.107Z,99549.66
2022-08-05T13:36:12.920Z,99539.66
2022-08-05T13:38:42.352Z,99544.78
2022-08-05T13:41:11.222Z,99539.88
2022-08-05T13:43:45.377Z,99537.34
2022-08-05T13:46:43.785Z,99523.31
2022-08-05T13:49:10.061Z,99526.19
2022-08-05T13:51:41.023Z,99528.97
2022-08-05T13:54:13.474Z,99522.13
2022-08-05T13:56:45.371Z,99516.69
2022-08-05T13:59:20.051Z,99518.22
2022-08-05T14:01:58.038Z,99506.59
2022-08-05T14:04:49.910Z,99517.59
2022-08-05T14:07:56.379Z,99517.16
2022-08-05T14:10:09.358Z,99511.38
2022-08-05T14:12:37.286Z,99509.72
2022-08-05T14:15:05.919Z,99502.16
2022-08-05T14:17:51.466Z,99509.56
2022-08-05T14:20:22.059Z,99505.41
2022-08-05T14:22:54.878Z,99505.72
2022-08-05T14:25:25.768Z,99499.78
2022-08-05T14:27:55.772Z,99492.69
2022-08-05T14:30:22.707Z,99501.44
2022-08-05T14:32:54.077Z,99491.66
2022-08-05T14:35:22.845Z,99486.56
2022-08-05T14:37:53.520Z,99494.41
2022-08-05T14:40:24.182Z,99490.56
2022-08-05T14:42:51.548Z,99488.47
2022-08-05T14:45:18.752Z,99493.69
2022-08-05T14:48:02.612Z,99489.53
2022-08-05T14:50:31.134Z,99488.25
2022-08-05T14:52:59.573Z,99483.97
2022-08-05T14:55:28.744Z,99482.19
2022-08-05T14:58:11.056Z,99472.78
2022-08-05T15:00:39.535Z,99471.72
2022-08-05T15:03:26.318Z,99469.38
2022-08-05T15:06:07.298Z,99463.88
2022-08-05T15:08:58.204Z,99465.56
2022-08-05T15:11:51.292Z,99468.31
2022-08-05T15:14:33.306Z,99466.63
2022-08-05T15:17:01.174Z,99463.88
2022-08-05T15:19:28.239Z,99457.72
2022-08-05T15:21:58.022Z,99469.03
2022-08-05T15:24:27.476Z,99462.81
2022-08-05T15:26:55.835Z,99464.72
2022-08-05T15:29:22.973Z,99461.44
2022-08-05T15:31:53.118Z,99451.69
2022-08-05T15:34:32.060Z,99450.75
2022-08-05T15:37:06.311Z,99447.75
2022-08-05T15:41:04.305Z,99441.53
2022-08-05T15:42:55.102Z,99444.22
2022-08-05T15:45:16.279Z,99436.50
2022-08-05T15:47:45.731Z,99437.72
2022-08-05T15:50:15.225Z,99430.41
2022-08-05T15:52:52.710Z,99431.41
2022-08-05T15:55:24.852Z,99432.78
2022-08-05T15:58:08.918Z,99437.22
2022-08-05T16:00:57.101Z,99437.63
2022-08-05T16:03:23.840Z,99438.47
2022-08-05T16:05:52.791Z,99432.03
2022-08-05T16:08:23.120Z,99431.88
2022-08-05T16:10:57.373Z,99436.06
2022-08-05T16:13:24.342Z,99438.50
2022-08-05T16:16:01.444Z,99435.59
2022-08-05T16:18:32.948Z,99434.41
2022-08-05T16:21:04.247Z,99436.84
2022-08-05T16:23:54.172Z,99437.34
2022-08-05T16:26:18.944Z,99439.81
2022-08-05T16:28:53.464Z,99445.25
2022-08-05T16:31:21.370Z,99438.03
2022-08-05T16:33:48.626Z,99440.34
2022-08-05T16:36:20.405Z,99438.66
2022-08-05T16:38:54.330Z,99441.22
2022-08-05T16:42:14.449Z,99432.13
2022-08-05T16:44:09.915Z,99438.78
2022-08-05T16:46:41.817Z,99429.84
2022-08-05T16:49:22.911Z,99432.78
2022-08-05T16:51:50.940Z,99430.75
2022-08-05T16:54:23.988Z,99430.06
2022-08-05T16:56:54.496Z,99425.94
2022-08-05T16:59:21.252Z,99436.72
2022-08-05T17:01:53.862Z,99427.97
2022-08-05T17:04:24.002Z,99434.75
2022-08-05T17:06:55.440Z,99435.03
2022-08-05T17:09:23.141Z,99435.94
2022-08-05T17:11:53.631Z,99432.53
2022-08-05T17:14:37.543Z,99440.62
2022-08-05T17:17:06.074Z,99446.44
2022-08-05T17:19:32.814Z,99437.66
2022-08-05T17:22:00.943Z,99443.81
2022-08-05T17:24:38.969Z,99446.03
2022-08-05T17:27:10.732Z,99445.78
2022-08-05T17:29:41.131Z,99441.53
2022-08-05T17:32:11.892Z,99451.91
2022-08-05T17:34:47.498Z,99449.06
2022-08-05T17:37:39.288Z,99450.22
2022-08-05T17:40:04.266Z,99445.41
2022-08-05T17:42:32.490Z,99447.69
2022-08-05T17:45:17.770Z,99451.38
2022-08-05T17:47:52.991Z,99444.84
2022-08-05T17:50:29.045Z,99448.28
2022-08-05T17:52:59.108Z,99451.38
2022-08-05T17:55:37.294Z,99441.47
2022-08-05T17:58:06.892Z,99445.41
2022-08-05T18:00:34.580Z,99448.50
2022-08-05T18:03:02.648Z,99452.31
2022-08-05T18:05:35.175Z,99455.47
2022-08-05T18:08:02.780Z,99458.22
2022-08-05T18:10:32.123Z,99450.91
2022-08-05T18:13:00.571Z,99449.19
2022-08-05T18:15:31.036Z,99452.50
2022-08-05T18:18:05.556Z,99449.12
2022-08-05T18:20:38.234Z,99441.12
2022-08-05T18:23:09.008Z,99449.28
2022-08-05T18:25:39.058Z,99451.97
2022-08-05T18:28:07.329Z,99448.59
2022-08-05T18:30:36.676Z,99453.44
2022-08-05T18:33:08.550Z,99449.09
2022-08-05T18:36:01.086Z,99457.22
2022-08-05T18:38:28.578Z,99465.75
2022-08-05T18:41:57.574Z,99472.00
2022-08-05T18:43:49.028Z,99467.50
2022-08-05T18:46:19.787Z,99470.19
2022-08-05T18:48:51.811Z,99468.00
2022-08-05T18:52:05.876Z,99472.97
2022-08-05T18:54:31.700Z,99473.91
2022-08-05T18:57:00.914Z,99480.00
2022-08-05T18:59:43.619Z,99479.50
2022-08-05T19:02:27.761Z,99480.13
2022-08-05T19:05:03.236Z,99479.28
2022-08-05T19:07:45.959Z,99484.13
2022-08-05T19:10:15.860Z,99485.28
2022-08-05T19:12:46.050Z,99487.22
2022-08-05T19:15:57.677Z,99492.16
2022-08-05T19:18:09.478Z,99483.63
2022-08-05T19:20:41.841Z,99487.41
2022-08-05T19:24:03.523Z,99484.50
2022-08-05T19:26:09.343Z,99486.41
2022-08-05T19:28:42.192Z,99492.19
2022-08-05T19:31:09.793Z,99496.59
2022-08-05T19:33:48.176Z,99497.69
2022-08-05T19:36:25.123Z,99493.53
2022-08-05T19:38:53.827Z,99505.19
2022-08-05T19:41:22.183Z,99500.06
2022-08-05T19:44:13.223Z,99497.78
2022-08-05T19:46:41.093Z,99491.69
2022-08-05T19:49:12.580Z,99490.53
2022-08-05T19:52:08.431Z,99487.41
2022-08-05T19:54:32.909Z,99491.47
2022-08-05T19:57:06.859Z,99492.28
2022-08-05T19:59:55.054Z,99487.38
2022-08-05T20:02:26.465Z,99487.81
2022-08-05T20:04:59.178Z,99489.53
2022-08-05T20:07:46.538Z,99494.84
2022-08-05T20:10:15.424Z,99496.78
2022-08-05T20:12:46.083Z,99490.00
2022-08-05T20:15:47.736Z,99494.25
2022-08-05T20:18:09.697Z,99497.03
2022-08-05T20:20:38.866Z,99499.81
2022-08-05T20:23:05.889Z,99495.78
2022-08-05T20:25:40.143Z,99496.41
2022-08-05T20:28:08.041Z,99508.16
2022-08-05T20:30:40.620Z,99505.16
2022-08-05T20:33:08.919Z,99510.81
2022-08-05T20:35:40.612Z,99507.72
2022-08-05T20:38:20.107Z,99514.75
2022-08-05T20:40:56.279Z,99509.84
2022-08-05T20:43:57.611Z,99513.91
2022-08-05T20:46:12.427Z,99519.47
2022-08-05T20:48:45.468Z,99525.16
2022-08-05T20:51:17.986Z,99529.66
2022-08-05T20:53:56.248Z,99528.66
2022-08-05T20:56:29.769Z,99532.84
2022-08-05T20:59:00.098Z,99530.47
2022-08-05T21:01:38.444Z,99531.38
2022-08-05T21:04:10.551Z,99538.16
2022-08-05T21:06:37.949Z,99534.63
2022-08-05T21:09:12.494Z,99535.06
2022-08-05T21:12:07.479Z,99534.22
2022-08-05T21:14:28.608Z,99529.63
2022-08-05T21:17:01.339Z,99523.97
2022-08-05T21:19:46.898Z,99535.47
2022-08-05T21:22:18.292Z,99538.25
2022-08-05T21:24:51.957Z,99552.34
2022-08-05T21:27:20.391Z,99547.62
2022-08-05T21:29:51.565Z,99545.44
2022-08-05T21:32:20.032Z,99546.69
2022-08-05T21:34:55.924Z,99549.94
2022-08-05T21:37:35.003Z,99552.22
2022-08-05T21:40:13.093Z,99548.22
2022-08-05T21:42:44.755Z,99555.38
2022-08-05T21:45:24.717Z,99555.62
2022-08-05T21:48:02.166Z,99555.09
2022-08-05T21:50:33.460Z,99555.81
2022-08-05T21:53:08.300Z,99552.09
2022-08-05T21:56:05.924Z,99557.31
2022-08-05T21:58:31.853Z,99555.22
2022-08-05T22:00:59.610Z,99559.59
2022-08-05T22:03:49.026Z,99556.63
2022-08-05T22:06:13.391Z,99563.00
2022-08-05T22:08:42.794Z,99555.88
2022-08-05T22:11:15.607Z,99560.13
2022-08-05T22:14:06.460Z,99566.41
2022-08-05T22:16:41.938Z,99559.59
2022-08-05T22:20:00.767Z,99556.12
2022-08-05T22:22:05.268Z,99558.63
2022-08-05T22:24:51.789Z,99553.97
2022-08-05T22:28:10.622Z,99561.34
2022-08-05T22:30:56.200Z,99555.16
2022-08-05T22:33:56.787Z,99562.88
2022-08-05T22:36:15.507Z,99556.53
2022-08-05T22:38:43.631Z,99564.34
2022-08-05T22:41:15.985Z,99551.41
2022-08-05T22:44:02.844Z,99549.25
2022-08-05T22:46:29.917Z,99555.06
2022-08-05T22:48:56.824Z,99558.37
2022-08-05T22:52:02.589Z,99550.63
2022-08-05T22:54:11.220Z,99558.03
2022-08-05T22:56:39.832Z,99543.34
2022-08-05T22:59:43.916Z,99550.81
2022-08-05T23:02:05.930Z,99547.41
2022-08-05T23:04:34.443Z,99542.78
2022-08-05T23:07:01.801Z,99538.31
2022-08-05T23:09:57.531Z,99539.59
2022-08-05T23:12:17.975Z,99552.88
2022-08-05T23:14:44.840Z,99541.19
2022-08-05T23:17:24.517Z,99552.00
2022-08-05T23:20:00.456Z,99542.94
2022-08-05T23:22:27.907Z,99541.38
2022-08-05T23:24:55.201Z,99553.06
2022-08-05T23:27:22.728Z,99546.88
2022-08-05T23:29:51.877Z,99545.16
2022-08-05T23:32:22.447Z,99545.31
2022-08-05T23:34:50.878Z,99545.16
2022-08-05T23:37:18.117Z,99543.28
2022-08-05T23:39:53.854Z,99540.84
2022-08-05T23:42:23.536Z,99539.31
2022-08-05T23:44:56.386Z,99538.31
2022-08-05T23:47:25.041Z,99537.97
2022-08-05T23:49:55.617Z,99538.63
2022-08-05T23:52:30.538Z,99533.50
2022-08-05T23:55:02.228Z,99535.47
2022-08-05T23:57:32.212Z,99526.31
